Time;durP1;ratioP1;P1;durP2;ratioP2;P2;SDS_P1;SDS_P2;PMS_P1;PMS_P2;Temp;Humidity;BMP_temperature;BMP_pressure;BME280_temperature;BME280_humidity;BME280_pressure;Samples;Min_cycle;Max_cycle;Signal;HPM_P1;HPM_P2
2022/08/27 00:01:17;;;;;;;11.25;7.43;;;;;;;19.83;100.00;100436.66;5045093;28;20045;-82
2022/08/27 00:03:47;;;;;;;8.30;6.90;;;;;;;19.82;100.00;100440.34;5039506;28;20053;-82
2022/08/27 00:06:18;;;;;;;11.07;7.30;;;;;;;19.79;100.00;100435.28;5037660;28;20118;-80
2022/08/27 00:08:48;;;;;;;12.05;7.50;;;;;;;19.78;100.00;100427.44;5019465;28;20052;-82
2022/08/27 00:11:20;;;;;;;9.70;7.82;;;;;;;19.80;100.00;100423.59;5030767;28;20041;-82
2022/08/27 00:13:50;;;;;;;13.82;9.05;;;;;;;19.77;100.00;100421.28;5048193;28;20045;-82
2022/08/27 00:16:24;;;;;;;9.95;7.45;;;;;;;19.79;100.00;100418.44;5021611;28;20091;-82
2022/08/27 00:18:59;;;;;;;11.10;7.72;;;;;;;19.79;100.00;100413.09;5033127;28;20133;-82
2022/08/27 00:21:28;;;;;;;11.93;7.95;;;;;;;19.77;100.00;100410.59;5048856;28;20043;-82
2022/08/27 00:23:56;;;;;;;9.40;8.40;;;;;;;19.73;100.00;100409.22;5032706;28;20128;-81
2022/08/27 00:26:28;;;;;;;10.77;7.68;;;;;;;19.74;100.00;100400.19;5039662;28;20049;-81
2022/08/27 00:28:59;;;;;;;12.05;7.72;;;;;;;19.76;100.00;100400.03;5048354;28;20234;-81
2022/08/27 00:31:35;;;;;;;9.57;8.57;;;;;;;19.76;100.00;100398.19;5034048;28;20053;-82
2022/08/27 00:34:18;;;;;;;12.98;10.45;;;;;;;19.73;100.00;100398.53;5042249;28;20095;-82
2022/08/27 00:37:02;;;;;;;11.05;9.07;;;;;;;19.69;100.00;100391.81;5048293;28;20044;-81
2022/08/27 00:39:35;;;;;;;10.63;9.57;;;;;;;19.66;100.00;100394.78;5044411;28;20060;-81
2022/08/27 00:42:05;;;;;;;11.75;8.57;;;;;;;19.63;100.00;100387.06;5054915;28;20037;-82
2022/08/27 00:44:37;;;;;;;10.18;9.18;;;;;;;19.67;100.00;100385.78;5035030;28;20088;-83
2022/08/27 00:47:33;;;;;;;12.23;8.70;;;;;;;19.65;100.00;100385.94;5049702;28;20049;-84
2022/08/27 00:50:07;;;;;;;8.45;7.43;;;;;;;19.65;100.00;100388.59;5044030;28;20052;-82
2022/08/27 00:52:56;;;;;;;11.52;8.60;;;;;;;19.67;100.00;100389.28;5019612;28;20485;-81
2022/08/27 00:55:34;;;;;;;13.80;8.40;;;;;;;19.70;100.00;100399.66;5064284;28;20041;-82
2022/08/27 00:58:14;;;;;;;9.95;8.70;;;;;;;19.72;100.00;100392.34;5040374;28;20409;-83
2022/08/27 01:00:47;;;;;;;10.05;8.63;;;;;;;19.70;100.00;100398.81;5047990;28;20071;-83
2022/08/27 01:03:21;;;;;;;10.57;7.13;;;;;;;19.71;100.00;100396.00;5048251;28;20048;-83
2022/08/27 01:05:49;;;;;;;12.05;8.10;;;;;;;19.76;100.00;100397.34;5032684;28;20045;-82
2022/08/27 01:08:24;;;;;;;9.50;7.65;;;;;;;19.75;100.00;100393.03;5032110;28;20057;-81
2022/08/27 01:10:57;;;;;;;11.10;7.38;;;;;;;19.74;100.00;100394.84;5049759;28;20041;-81
2022/08/27 01:13:32;;;;;;;11.13;8.82;;;;;;;19.73;100.00;100399.38;5050583;28;20037;-81
2022/08/27 01:16:30;;;;;;;11.15;8.85;;;;;;;19.75;100.00;100398.38;5037788;28;20493;-81
2022/08/27 01:19:00;;;;;;;9.52;7.65;;;;;;;19.73;100.00;100401.19;5023328;28;20045;-82
2022/08/27 01:21:56;;;;;;;11.07;8.77;;;;;;;19.76;100.00;100394.69;5049992;28;20481;-80
2022/08/27 01:24:49;;;;;;;11.27;7.55;;;;;;;19.76;100.00;100392.03;5030461;28;20055;-82
2022/08/27 01:27:25;;;;;;;12.20;8.60;;;;;;;19.80;100.00;100401.41;5036688;28;20049;-82
2022/08/27 01:29:57;;;;;;;12.50;8.32;;;;;;;19.82;100.00;100402.94;5047906;28;20522;-82
2022/08/27 01:32:32;;;;;;;9.95;8.07;;;;;;;19.82;100.00;100397.59;5054821;28;20500;-82
2022/08/27 01:35:06;;;;;;;12.10;8.10;;;;;;;19.84;100.00;100392.91;5045061;28;20393;-80
2022/08/27 01:37:40;;;;;;;11.43;8.95;;;;;;;19.86;100.00;100398.13;5049318;28;20091;-82
2022/08/27 01:40:18;;;;;;;8.93;6.65;;;;;;;19.84;100.00;100403.59;5047199;28;20520;-83
2022/08/27 01:42:55;;;;;;;12.05;8.10;;;;;;;19.85;100.00;100402.59;5034451;28;20110;-82
2022/08/27 01:45:47;;;;;;;10.60;9.50;;;;;;;19.85;100.00;100402.59;5047928;28;20126;-80
2022/08/27 01:48:23;;;;;;;9.63;6.88;;;;;;;19.88;100.00;100402.31;5042900;28;20496;-80
2022/08/27 01:50:51;;;;;;;11.88;9.77;;;;;;;19.89;100.00;100395.13;5041895;28;20052;-80
2022/08/27 01:53:24;;;;;;;7.57;6.65;;;;;;;19.86;100.00;100398.97;5038085;28;20067;-82
2022/08/27 01:55:58;;;;;;;10.23;7.65;;;;;;;19.90;100.00;100399.47;5038850;28;20509;-83
2022/08/27 01:58:30;;;;;;;15.05;9.57;;;;;;;19.91;100.00;100401.16;5045572;28;20051;-83
2022/08/27 02:01:04;;;;;;;12.43;8.57;;;;;;;19.91;100.00;100390.47;5025670;28;20517;-81
2022/08/27 02:03:36;;;;;;;9.30;7.47;;;;;;;19.91;100.00;100395.81;5039642;28;20071;-82
2022/08/27 02:06:10;;;;;;;11.68;9.82;;;;;;;19.93;100.00;100397.31;5035060;28;20049;-80
2022/08/27 02:08:42;;;;;;;11.88;9.38;;;;;;;19.93;100.00;100402.66;5032893;28;20144;-83
2022/08/27 02:11:11;;;;;;;13.13;10.80;;;;;;;19.91;100.00;100398.50;5031261;28;20529;-81
2022/08/27 02:13:44;;;;;;;20.13;12.23;;;;;;;19.88;100.00;100406.81;5040025;28;20045;-81
2022/08/27 02:16:20;;;;;;;18.63;12.35;;;;;;;19.85;100.00;100409.78;5050868;28;20045;-82
2022/08/27 02:18:53;;;;;;;15.13;10.02;;;;;;;19.86;100.00;100403.47;5054275;28;20492;-84
2022/08/27 02:21:25;;;;;;;;;;;;;;;19.88;100.00;100406.81;5041969;28;20041;-83
2022/08/27 02:23:55;;;;;;;15.25;9.70;;;;;;;19.91;100.00;100404.69;5041931;28;19928;-82
2022/08/27 02:26:35;;;;;;;14.02;9.75;;;;;;;19.99;100.00;100411.88;5028322;28;20041;-82
2022/08/27 02:29:03;;;;;;;11.45;9.80;;;;;;;20.03;100.00;100415.94;5048353;28;20044;-82
2022/08/27 02:31:33;;;;;;;15.35;11.60;;;;;;;20.04;100.00;100412.28;5024000;28;20041;-81
2022/08/27 02:34:04;;;;;;;21.83;12.10;;;;;;;20.02;100.00;100410.75;5030651;28;20052;-81
2022/08/27 02:36:42;;;;;;;12.40;10.05;;;;;;;20.00;100.00;100410.09;5031734;28;20146;-81
2022/08/27 02:39:10;;;;;;;13.52;9.05;;;;;;;20.02;100.00;100406.25;5023440;28;20049;-81
2022/08/27 02:41:40;;;;;;;20.42;10.52;;;;;;;20.06;100.00;100407.59;5044142;28;20103;-81
2022/08/27 02:44:12;;;;;;;20.50;9.88;;;;;;;20.08;100.00;100412.78;5039086;28;20045;-82
2022/08/27 02:46:41;;;;;;;16.83;12.05;;;;;;;20.10;100.00;100410.81;5043042;28;20037;-82
2022/08/27 02:49:12;;;;;;;14.30;10.18;;;;;;;20.09;100.00;100406.47;5041512;28;20124;-81
2022/08/27 02:51:43;;;;;;;20.63;12.60;;;;;;;20.10;100.00;100411.66;5030043;28;20049;-81
2022/08/27 02:54:18;;;;;;;24.38;12.00;;;;;;;20.10;100.00;100403.63;5047193;28;20056;-81
2022/08/27 02:56:47;;;;;;;17.70;11.30;;;;;;;20.09;100.00;100401.97;5045774;28;20045;-80
2022/08/27 02:59:17;;;;;;;18.60;12.93;;;;;;;20.08;100.00;100399.41;5039162;28;20047;-83
2022/08/27 03:01:47;;;;;;;21.58;12.82;;;;;;;20.08;100.00;100400.25;5041996;28;20056;-82
2022/08/27 03:04:18;;;;;;;22.52;13.93;;;;;;;20.09;100.00;100409.13;5012985;28;20049;-82
2022/08/27 03:06:47;;;;;;;22.95;15.43;;;;;;;20.07;100.00;100411.13;5022095;28;20482;-80
2022/08/27 03:09:16;;;;;;;20.08;16.23;;;;;;;20.07;100.00;100422.63;5048738;28;20097;-81
2022/08/27 03:11:44;;;;;;;22.00;11.98;;;;;;;20.07;100.00;100424.47;5042493;28;20406;-81
2022/08/27 03:14:13;;;;;;;22.50;13.88;;;;;;;20.09;100.00;100420.66;5023489;28;20136;-82
2022/08/27 03:16:43;;;;;;;29.35;18.50;;;;;;;20.10;100.00;100421.50;5040082;28;20052;-80
2022/08/27 03:19:11;;;;;;;27.92;17.42;;;;;;;20.05;100.00;100419.28;5043904;28;20127;-81
2022/08/27 03:21:51;;;;;;;24.45;15.90;;;;;;;20.02;100.00;100424.09;5048240;28;20079;-81
2022/08/27 03:24:23;;;;;;;32.15;18.88;;;;;;;20.02;100.00;100413.41;5028960;28;20135;-82
2022/08/27 03:26:52;;;;;;;26.38;17.17;;;;;;;19.96;100.00;100415.72;5047657;28;20440;-79
2022/08/27 03:29:22;;;;;;;30.70;19.83;;;;;;;19.94;100.00;100417.69;5040971;28;20037;-83
2022/08/27 03:31:50;;;;;;;27.15;17.73;;;;;;;19.91;100.00;100410.00;5032531;28;20065;-83
2022/08/27 03:34:19;;;;;;;27.10;19.42;;;;;;;19.89;100.00;100405.81;5015033;28;20076;-82
2022/08/27 03:36:47;;;;;;;25.63;17.38;;;;;;;19.90;100.00;100404.81;5030152;28;20056;-82
2022/08/27 03:39:20;;;;;;;37.95;22.48;;;;;;;19.93;100.00;100415.19;5040729;28;20045;-82
2022/08/27 03:41:48;;;;;;;29.52;18.38;;;;;;;19.93;100.00;100404.50;5061513;28;20055;-81
2022/08/27 03:44:23;;;;;;;31.55;20.90;;;;;;;19.96;100.00;100399.69;5004061;28;20055;-81
2022/08/27 03:46:50;;;;;;;35.08;23.27;;;;;;;19.93;100.00;100399.16;5058904;28;20135;-80
2022/08/27 03:49:45;;;;;;;30.42;20.25;;;;;;;19.89;100.00;100406.66;5027074;28;20051;-81
2022/08/27 03:52:13;;;;;;;34.78;22.80;;;;;;;19.85;100.00;100402.59;5027130;28;20515;-82
2022/08/27 03:54:41;;;;;;;33.08;22.35;;;;;;;19.80;100.00;100399.56;5021924;28;20045;-81
2022/08/27 03:57:14;;;;;;;36.38;24.20;;;;;;;19.79;100.00;100399.72;5041068;28;20065;-82
2022/08/27 03:59:54;;;;;;;31.17;20.85;;;;;;;19.79;100.00;100399.72;5023955;28;20053;-81
2022/08/27 04:02:28;;;;;;;37.78;22.75;;;;;;;19.82;100.00;100394.09;5048276;28;20056;-79
2022/08/27 04:04:59;;;;;;;32.85;21.98;;;;;;;19.86;100.00;100392.78;5051637;28;20049;-81
2022/08/27 04:07:29;;;;;;;35.13;23.73;;;;;;;19.82;100.00;100389.59;5051119;28;20553;-83
2022/08/27 04:10:00;;;;;;;32.88;22.08;;;;;;;19.80;100.00;100390.72;5048682;28;20052;-82
2022/08/27 04:12:27;;;;;;;46.28;28.30;;;;;;;19.75;100.00;100391.19;5053045;28;20405;-83
2022/08/27 04:15:14;;;;;;;42.53;26.48;;;;;;;19.66;100.00;100397.47;5049032;28;20049;-82
2022/08/27 04:17:42;;;;;;;28.65;22.67;;;;;;;19.62;100.00;100401.44;5049993;28;20135;-83
2022/08/27 04:20:19;;;;;;;39.17;24.40;;;;;;;19.63;100.00;100406.63;5050176;28;20045;-82
2022/08/27 04:23:05;;;;;;;37.65;24.77;;;;;;;19.60;100.00;100404.25;5052521;28;20037;-81
2022/08/27 04:25:40;;;;;;;37.13;25.15;;;;;;;19.58;100.00;100408.03;5051560;28;20071;-82
2022/08/27 04:28:10;;;;;;;40.22;27.58;;;;;;;19.49;100.00;100412.47;5048753;28;20208;-82
2022/08/27 04:30:49;;;;;;;38.97;26.90;;;;;;;19.43;100.00;100413.09;5035505;28;20063;-82
2022/08/27 04:33:20;;;;;;;41.83;27.27;;;;;;;19.40;100.00;100421.38;5047818;28;20440;-80
2022/08/27 04:36:07;;;;;;;38.47;26.13;;;;;;;19.37;100.00;100414.53;5051465;28;20041;-82
2022/08/27 04:38:38;;;;;;;36.55;26.13;;;;;;;19.37;100.00;100411.88;5049105;28;20041;-81
2022/08/27 04:41:18;;;;;;;36.47;24.35;;;;;;;19.41;100.00;100407.91;5051492;28;20068;-83
2022/08/27 04:43:55;;;;;;;29.38;20.95;;;;;;;19.45;100.00;100401.28;5042045;28;20178;-82
2022/08/27 04:46:30;;;;;;;33.15;24.80;;;;;;;19.46;100.00;100410.94;5053755;28;20118;-81
2022/08/27 04:49:06;;;;;;;34.70;24.85;;;;;;;19.43;100.00;100407.75;5052689;28;20037;-82
2022/08/27 04:51:53;;;;;;;29.83;22.10;;;;;;;19.41;100.00;100407.91;5050872;28;20061;-80
2022/08/27 04:54:25;;;;;;;32.15;23.88;;;;;;;19.41;100.00;100407.91;5052567;28;20449;-82
2022/08/27 04:57:03;;;;;;;40.22;23.70;;;;;;;19.43;100.00;100408.56;5048883;28;20616;-82
2022/08/27 04:59:31;;;;;;;28.00;21.50;;;;;;;19.47;100.00;100417.13;5049180;28;20048;-82
2022/08/27 05:02:03;;;;;;;35.35;22.50;;;;;;;19.49;100.00;100415.97;5033997;28;20106;-82
2022/08/27 05:04:33;;;;;;;33.05;22.75;;;;;;;19.48;100.00;100411.63;5013276;28;20550;-82
2022/08/27 05:07:01;;;;;;;30.67;21.00;;;;;;;19.49;100.00;100420.47;5034017;28;20075;-81
2022/08/27 05:09:28;;;;;;;34.90;22.65;;;;;;;19.50;100.00;100424.84;5031897;28;20036;-82
2022/08/27 05:11:56;;;;;;;32.88;23.23;;;;;;;19.49;100.00;100423.13;5033682;28;20041;-82
2022/08/27 05:14:28;;;;;;;33.53;23.00;;;;;;;19.49;100.00;100429.31;5049416;28;20041;-81
2022/08/27 05:16:57;;;;;;;30.02;21.60;;;;;;;19.49;100.00;100423.97;5019312;28;20053;-82
2022/08/27 05:19:25;;;;;;;33.20;21.60;;;;;;;19.49;100.00;100421.31;5032956;28;20424;-81
2022/08/27 05:21:53;;;;;;;33.03;21.98;;;;;;;19.43;100.00;100413.09;5033774;28;20049;-81
2022/08/27 05:24:21;;;;;;;31.42;20.90;;;;;;;19.41;100.00;100429.25;5032839;28;20413;-82
2022/08/27 05:26:49;;;;;;;29.08;21.92;;;;;;;19.43;100.00;100415.75;5065291;28;20056;-81
2022/08/27 05:29:17;;;;;;;28.48;21.60;;;;;;;19.45;100.00;100413.75;5048582;28;20553;-81
2022/08/27 05:31:47;;;;;;;32.05;21.80;;;;;;;19.48;100.00;100418.78;5032447;28;20041;-82
2022/08/27 05:34:17;;;;;;;27.10;20.38;;;;;;;19.48;100.00;100416.97;5047310;28;20052;-82
2022/08/27 05:36:53;;;;;;;29.02;20.27;;;;;;;19.56;100.00;100421.53;5031493;28;20053;-83
2022/08/27 05:39:22;;;;;;;24.45;19.58;;;;;;;19.58;100.00;100422.22;5029965;28;20049;-82
2022/08/27 05:41:51;;;;;;;28.50;21.52;;;;;;;19.61;100.00;100419.28;5032220;28;20663;-81
2022/08/27 05:44:19;;;;;;;28.27;20.45;;;;;;;19.58;100.00;100422.22;5032345;28;20353;-81
2022/08/27 05:47:06;;;;;;;32.08;21.98;;;;;;;19.60;100.00;100420.28;5021195;28;20049;-82
2022/08/27 05:49:34;;;;;;;28.48;21.00;;;;;;;19.58;100.00;100424.06;5046261;28;20063;-84
2022/08/27 05:52:01;;;;;;;23.40;18.58;;;;;;;19.57;100.00;100422.38;5049753;28;20064;-82
2022/08/27 05:54:30;;;;;;;27.77;19.00;;;;;;;19.61;100.00;100419.28;5048818;28;20041;-82
2022/08/27 05:56:58;;;;;;;21.95;16.85;;;;;;;19.64;100.00;100420.81;5049900;28;20049;-82
2022/08/27 06:02:12;;;;;;;20.17;16.50;;;;;;;19.68;100.00;100439.06;5032878;28;20508;-82
2022/08/27 06:04:40;;;;;;;18.00;14.48;;;;;;;19.73;100.00;100434.09;5030900;28;20052;-83
2022/08/27 06:07:09;;;;;;;24.95;18.27;;;;;;;19.75;100.00;100430.41;5014075;28;20204;-81
2022/08/27 06:09:36;;;;;;;25.52;18.95;;;;;;;19.76;100.00;100437.44;5038281;28;20049;-82
2022/08/27 06:12:05;;;;;;;18.08;15.55;;;;;;;19.77;100.00;100436.44;5032255;28;20052;-82
2022/08/27 06:14:34;;;;;;;20.05;16.15;;;;;;;19.79;100.00;100439.81;5060283;28;20131;-81
2022/08/27 06:17:02;;;;;;;21.58;16.42;;;;;;;19.78;100.00;100438.13;5046593;28;20063;-82
2022/08/27 06:19:30;;;;;;;20.27;16.65;;;;;;;19.73;100.00;100436.75;5015938;28;20117;-81
2022/08/27 06:22:01;;;;;;;23.92;17.77;;;;;;;19.71;100.00;100435.22;5019022;28;20045;-82
2022/08/27 06:24:38;;;;;;;17.85;15.65;;;;;;;19.72;100.00;100436.88;5014980;28;20088;-82
2022/08/27 06:27:11;;;;;;;18.65;15.80;;;;;;;19.71;100.00;100441.41;5027233;28;20503;-82
2022/08/27 06:29:39;;;;;;;14.05;12.52;;;;;;;19.75;100.00;100438.44;5029491;28;20176;-82
2022/08/27 06:32:11;;;;;;;21.98;17.15;;;;;;;19.76;100.00;100437.44;5039062;28;20052;-82
2022/08/27 06:34:39;;;;;;;21.45;16.77;;;;;;;19.81;100.00;100445.81;5046499;28;20203;-82
2022/08/27 06:37:07;;;;;;;20.88;15.55;;;;;;;19.82;100.00;100444.84;5042970;28;20061;-82
2022/08/27 06:39:35;;;;;;;18.92;15.25;;;;;;;19.85;100.00;100455.19;5031229;28;20052;-81
2022/08/27 06:42:05;;;;;;;15.48;12.98;;;;;;;19.89;100.00;100443.22;5050649;28;20048;-81
2022/08/27 06:44:32;;;;;;;15.82;12.93;;;;;;;19.93;100.00;100455.28;5047308;28;20072;-82
2022/08/27 06:47:02;;;;;;;15.10;12.10;;;;;;;19.92;100.00;100448.25;5030360;28;20105;-81
2022/08/27 06:49:30;;;;;;;16.35;11.20;;;;;;;19.95;100.00;100450.63;5057507;28;20402;-81
2022/08/27 06:51:57;;;;;;;15.15;12.45;;;;;;;19.97;100.00;100457.47;5032739;28;20507;-82
2022/08/27 06:54:25;;;;;;;15.30;13.70;;;;;;;20.00;100.00;100452.84;5048288;28;20127;-81
2022/08/27 06:56:52;;;;;;;16.58;11.68;;;;;;;20.00;100.00;100456.34;5044014;28;20048;-81
2022/08/27 06:59:20;;;;;;;16.63;13.10;;;;;;;20.03;100.00;100457.84;5044442;28;20560;-81
2022/08/27 07:01:50;;;;;;;15.88;12.70;;;;;;;20.03;100.00;100460.53;5048376;28;20083;-81
2022/08/27 07:04:21;;;;;;;16.42;13.15;;;;;;;20.01;100.00;100460.69;5025045;28;20053;-82
2022/08/27 07:06:58;;;;;;;14.48;11.68;;;;;;;20.01;100.00;100466.03;5040301;28;20059;-84
2022/08/27 07:09:29;;;;;;;13.90;10.38;;;;;;;20.03;100.00;100466.69;5017850;28;20115;-82
2022/08/27 07:11:58;;;;;;;13.60;9.73;;;;;;;20.08;100.00;100472.41;5029036;28;20041;-82
2022/08/27 07:14:25;;;;;;;12.43;11.23;;;;;;;20.11;100.00;100472.09;5036673;28;20051;-82
2022/08/27 07:16:52;;;;;;;14.23;11.20;;;;;;;20.12;100.00;100475.63;5018986;28;20046;-83
2022/08/27 07:19:20;;;;;;;12.50;10.88;;;;;;;20.14;100.00;100479.00;5026411;28;20505;-82
2022/08/27 07:21:49;;;;;;;11.82;10.52;;;;;;;20.16;100.00;100474.31;5030164;28;20045;-83
2022/08/27 07:24:17;;;;;;;11.65;9.88;;;;;;;20.17;100.00;100474.19;5045282;28;20067;-83
2022/08/27 07:26:45;;;;;;;9.63;8.63;;;;;;;20.17;100.00;100479.53;5027864;28;20500;-82
2022/08/27 07:29:14;;;;;;;11.75;9.95;;;;;;;20.22;100.00;100471.03;5029262;28;20037;-82
2022/08/27 07:31:43;;;;;;;10.68;9.05;;;;;;;20.24;100.00;100469.88;5010943;28;20072;-82
2022/08/27 07:34:10;;;;;;;13.13;10.95;;;;;;;20.27;100.00;100482.09;5041468;28;20045;-82
2022/08/27 07:36:42;;;;;;;12.68;11.38;;;;;;;20.30;100.00;100475.56;5045753;28;20041;-84
2022/08/27 07:39:09;;;;;;;14.10;11.43;;;;;;;20.31;100.00;100474.56;5039513;28;20061;-84
2022/08/27 07:44:26;;;;;;;12.35;10.82;;;;;;;20.34;100.00;100475.09;5049282;28;20059;-81
2022/08/27 07:47:01;;;;;;;13.60;11.23;;;;;;;20.35;100.00;100470.59;5014877;28;20555;-82
2022/08/27 07:49:28;;;;;;;12.85;9.80;;;;;;;20.32;100.00;100462.91;5046607;28;20041;-82
2022/08/27 07:51:56;;;;;;;15.88;12.25;;;;;;;20.31;100.00;100463.88;5024169;28;20706;-82
2022/08/27 07:54:23;;;;;;;13.18;10.25;;;;;;;20.26;100.00;100468.88;5041492;28;20141;-82
2022/08/27 07:56:52;;;;;;;15.63;11.13;;;;;;;20.26;100.00;100463.53;5036479;28;20521;-82
2022/08/27 07:59:23;;;;;;;16.95;12.52;;;;;;;20.23;100.00;100467.34;5017885;28;20049;-82
2022/08/27 08:01:51;;;;;;;15.10;11.82;;;;;;;20.18;100.00;100467.84;5013071;28;20059;-82
2022/08/27 08:04:18;;;;;;;13.48;10.75;;;;;;;20.15;100.00;100467.28;5041076;28;20112;-84
2022/08/27 08:06:47;;;;;;;11.32;9.32;;;;;;;20.22;100.00;100468.38;5033651;28;20038;-85
2022/08/27 08:09:15;;;;;;;14.48;11.38;;;;;;;20.30;100.00;100472.91;5046834;28;20049;-85
2022/08/27 08:11:43;;;;;;;13.23;9.40;;;;;;;20.34;100.00;100479.63;5043108;28;20044;-85
2022/08/27 08:14:10;;;;;;;11.45;9.48;;;;;;;20.38;100.00;100486.34;5029311;28;20051;-84
2022/08/27 08:16:41;;;;;;;11.82;7.30;;;;;;;20.41;100.00;100476.16;5045916;28;20045;-84
2022/08/27 08:19:08;;;;;;;9.32;8.00;;;;;;;20.42;100.00;100495.72;5053607;28;20033;-86
2022/08/27 08:21:37;;;;;;;12.55;7.78;;;;;;;20.42;100.00;100485.03;5036238;28;20037;-84
2022/08/27 08:24:05;;;;;;;10.63;8.13;;;;;;;20.48;100.00;100489.75;5047885;28;20029;-84
2022/08/27 08:26:32;;;;;;;12.05;8.30;;;;;;;20.54;100.00;100489.16;5029800;28;20037;-83
2022/08/27 08:29:03;;;;;;;9.98;7.25;;;;;;;20.58;100.00;100498.53;5040822;28;20162;-85
2022/08/27 08:31:31;;;;;;;11.32;8.48;;;;;;;20.58;100.00;100487.84;5051181;28;20210;-85
2022/08/27 08:33:58;;;;;;;9.35;6.55;;;;;;;20.57;100.00;100486.13;5029411;28;20354;-85
2022/08/27 08:36:25;;;;;;;8.38;6.45;;;;;;;20.58;100.00;100477.16;5070272;28;20084;-83
2022/08/27 08:38:53;;;;;;;9.10;6.55;;;;;;;20.59;100.00;100473.47;5056998;28;20489;-86
2022/08/27 08:41:43;;;;;;;10.50;5.72;;;;;;;20.63;100.00;100463.28;5025729;28;20424;-82
2022/08/27 08:44:30;;;;;;;6.90;5.72;;;;;;;20.69;100.00;100466.16;5043036;28;20034;-84
2022/08/27 08:47:03;;;;;;;7.45;5.03;;;;;;;20.74;100.00;100460.31;5043605;28;20049;-84
2022/08/27 08:49:39;;;;;;;7.30;5.65;;;;;;;20.79;100.00;100463.34;5043800;28;20036;-85
2022/08/27 08:52:13;;;;;;;8.00;6.43;;;;;;;20.79;100.00;100457.16;5033607;28;20342;-83
2022/08/27 08:55:17;;;;;;;7.75;6.82;;;;;;;20.86;100.00;100456.38;5040047;28;20037;-81
2022/08/27 08:57:49;;;;;;;8.43;6.63;;;;;;;20.85;100.00;100448.47;5062779;28;20041;-82
2022/08/27 09:00:16;;;;;;;10.00;6.70;;;;;;;20.86;100.00;100456.38;5032772;28;20354;-82
2022/08/27 09:02:49;;;;;;;10.10;7.95;;;;;;;20.86;100.00;100460.88;5041773;28;20042;-84
2022/08/27 09:05:16;;;;;;;9.52;8.52;;;;;;;20.66;100.00;100455.75;5031667;28;20495;-83
2022/08/27 09:07:50;;;;;;;10.40;8.77;;;;;;;20.58;100.00;100447.72;5049688;28;21052;-81
2022/08/27 09:10:32;;;;;;;11.38;8.38;;;;;;;20.57;100.00;100454.03;5033326;28;20123;-82
2022/08/27 09:13:02;;;;;;;9.52;8.05;;;;;;;20.60;100.00;100452.91;5065010;28;20060;-82
2022/08/27 09:15:33;;;;;;;10.90;8.30;;;;;;;20.69;100.00;100450.09;5039474;28;20123;-83
2022/08/27 09:18:11;;;;;;;9.70;8.23;;;;;;;20.73;100.00;100445.28;5032842;28;20049;-84
2022/08/27 09:20:44;;;;;;;13.13;9.10;;;;;;;20.70;100.00;100446.41;5047685;28;20342;-83
2022/08/27 09:23:39;;;;;;;17.80;11.02;;;;;;;20.67;100.00;100438.75;5031955;28;20119;-83
2022/08/27 09:26:20;;;;;;;12.45;8.70;;;;;;;20.71;100.00;100439.22;5047354;28;20075;-83
2022/08/27 09:31:40;;;;;;;10.65;8.50;;;;;;;20.88;100.00;100432.13;5045745;28;20029;-84
2022/08/27 09:34:07;;;;;;;14.75;11.02;;;;;;;20.96;100.00;100435.66;5042967;28;20057;-86
2022/08/27 09:36:47;;;;;;;12.93;10.63;;;;;;;20.97;100.00;100441.84;5028818;28;20144;-88
2022/08/27 09:39:14;;;;;;;14.95;9.02;;;;;;;20.95;100.00;100438.50;5045571;28;20370;-85
2022/08/27 09:41:46;;;;;;;11.38;6.88;;;;;;;20.98;100.00;100448.88;5029713;28;20044;-85
2022/08/27 09:44:17;;;;;;;12.27;7.72;;;;;;;21.05;100.00;100454.44;5034056;28;20052;-86
2022/08/27 09:47:12;;;;;;;12.27;8.23;;;;;;;21.05;100.00;100465.13;5046949;28;20065;-83
2022/08/27 09:49:40;;;;;;;9.82;8.10;;;;;;;21.08;100.00;100464.81;5046670;28;20068;-84
2022/08/27 09:52:09;;;;;;;12.45;6.57;;;;;;;21.17;100.00;100477.22;5031418;28;20492;-86
2022/08/27 09:54:40;;;;;;;8.20;6.93;;;;;;;21.23;100.00;100482.75;5032772;28;20053;-84
2022/08/27 09:57:09;;;;;;;8.75;6.30;;;;;;;21.22;100.00;100489.13;5031280;28;20095;-84
2022/08/27 09:59:40;;;;;;;8.85;6.30;;;;;;;21.28;100.00;100492.97;5029992;28;20099;-84
2022/08/27 10:02:18;;;;;;;7.72;5.88;;;;;;;21.36;100.00;100497.56;5026569;28;20144;-88
2022/08/27 10:04:51;;;;;;;8.82;6.97;;;;;;;21.41;100.00;100500.59;5049005;28;20044;-88
2022/08/27 10:07:25;;;;;;;7.00;6.30;;;;;;;21.44;100.00;100497.59;5049749;28;20048;-90
2022/08/27 10:10:16;;;;;;;7.50;6.25;;;;;;;21.47;100.00;100500.75;5042376;28;20053;-88
2022/08/27 10:12:51;;;;;;;7.28;5.57;;;;;;;21.53;100.00;100509.16;5047766;28;20049;-87
2022/08/27 10:15:18;;;;;;;7.97;5.30;;;;;;;21.57;100.00;100510.47;5031510;28;20037;-87
2022/08/27 10:18:01;;;;;;;8.73;6.40;;;;;;;21.65;100.00;100505.97;5045298;28;20492;-85
2022/08/27 10:21:01;;;;;;;8.77;6.47;;;;;;;21.64;100.00;100509.66;5040159;28;20064;-86
2022/08/27 10:23:52;;;;;;;7.45;5.85;;;;;;;21.60;100.00;100508.31;5015466;28;20080;-87
2022/08/27 10:26:27;;;;;;;10.43;6.57;;;;;;;21.68;100.00;100508.34;5048512;28;20048;-87
2022/08/27 10:29:16;;;;;;;8.15;5.63;;;;;;;21.68;100.00;100508.34;5032049;28;20102;-86
2022/08/27 10:31:58;;;;;;;5.60;5.00;;;;;;;21.77;100.00;100508.34;5057414;28;20040;-86
2022/08/27 10:34:50;;;;;;;6.28;4.65;;;;;;;21.83;100.00;100513.03;5014452;28;20078;-87
2022/08/27 10:37:35;;;;;;;8.80;5.97;;;;;;;21.84;100.00;100520.94;5061152;28;20045;-87
2022/08/27 10:40:19;;;;;;;5.60;5.10;;;;;;;21.88;100.00;100518.72;5036651;28;20036;-87
2022/08/27 10:43:14;;;;;;;7.03;5.00;;;;;;;21.93;100.00;100519.06;5049947;28;20041;-86
2022/08/27 10:45:54;;;;;;;8.00;5.97;;;;;;;21.97;100.00;100520.41;5030937;28;20215;-85
2022/08/27 10:48:33;;;;;;;5.90;5.40;;;;;;;21.96;100.00;100522.25;5007384;28;20476;-87
2022/08/27 10:51:15;;;;;;;7.47;5.32;;;;;;;22.02;100.00;100522.59;5035825;28;20045;-86
2022/08/27 10:54:04;;;;;;;7.32;5.07;;;;;;;22.06;100.00;100511.38;5032801;28;20067;-86
2022/08/27 10:56:38;;;;;;;6.88;4.85;;;;;;;22.10;100.00;100515.38;5064718;28;20048;-88
2022/08/27 10:59:42;;;;;;;5.90;4.78;;;;;;;22.15;100.00;100523.78;5049275;28;20045;-85
2022/08/27 11:02:34;;;;;;;6.45;4.72;;;;;;;22.18;100.00;100520.78;5048559;28;20051;-86
2022/08/27 11:05:26;;;;;;;6.32;4.72;;;;;;;22.25;100.00;100518.28;5047459;28;20028;-88
2022/08/27 11:08:17;;;;;;;10.15;5.68;;;;;;;22.33;100.00;100520.09;5047047;28;20086;-87
2022/08/27 11:10:57;;;;;;;7.10;4.90;;;;;;;22.35;100.00;100516.25;5028579;28;20046;-84
2022/08/27 11:13:49;;;;;;;7.20;4.60;;;;;;;22.39;100.00;100514.09;5027825;28;20056;-85
2022/08/27 11:16:26;;;;;;;10.07;5.10;;;;;;;22.41;100.00;100512.06;5029429;28;20049;-83
2022/08/27 11:18:58;;;;;;;5.70;5.10;;;;;;;22.39;100.00;100516.75;5039622;28;20060;-82
2022/08/27 11:21:43;;;;;;;5.80;5.28;;;;;;;22.36;100.00;100511.72;5031230;28;20462;-85
2022/08/27 11:24:34;;;;;;;5.07;4.10;;;;;;;22.33;100.00;100514.75;5043598;28;20484;-85
2022/08/27 11:27:05;;;;;;;5.40;4.90;;;;;;;22.33;100.00;100512.06;5043304;28;20462;-84
2022/08/27 11:29:36;;;;;;;8.88;5.07;;;;;;;22.33;100.00;100509.38;5028167;28;20045;-86
2022/08/27 11:32:17;;;;;;;7.00;5.57;;;;;;;22.32;100.00;100502.34;5014392;28;20033;-84
2022/08/27 11:34:52;;;;;;;6.28;4.78;;;;;;;22.36;100.00;100515.25;5044795;28;20045;-89
2022/08/27 11:37:54;;;;;;;6.63;4.95;;;;;;;22.41;100.00;100518.25;5028187;28;20040;-87
2022/08/27 11:40:37;;;;;;;5.80;5.13;;;;;;;22.47;100.00;100511.41;5034301;28;20545;-83
2022/08/27 11:43:09;;;;;;;7.90;5.03;;;;;;;22.49;100.00;100517.41;5044665;28;20059;-83
2022/08/27 11:45:38;;;;;;;8.52;5.35;;;;;;;22.50;100.00;100509.19;5042712;28;20076;-85